sensor_id;sensor_type;location;lat;lon;timestamp;P1;durP1;ratioP1;P2;durP2;ratioP2
11614;SDS011;5863;52.832;4.758;2024-02-16T00:02:03;5.93;;;3.38;;
11614;SDS011;5863;52.832;4.758;2024-02-16T00:04:30;3.17;;;2.78;;
11614;SDS011;5863;52.832;4.758;2024-02-16T00:06:57;4.90;;;3.20;;
11614;SDS011;5863;52.832;4.758;2024-02-16T00:09:25;4.57;;;3.33;;
11614;SDS011;5863;52.832;4.758;2024-02-16T00:11:52;5.07;;;3.28;;
11614;SDS011;5863;52.832;4.758;2024-02-16T00:14:20;6.13;;;3.72;;
11614;SDS011;5863;52.832;4.758;2024-02-16T00:16:47;3.92;;;2.80;;
11614;SDS011;5863;52.832;4.758;2024-02-16T00:19:14;5.32;;;3.72;;
11614;SDS011;5863;52.832;4.758;2024-02-16T00:21:40;4.68;;;3.38;;
11614;SDS011;5863;52.832;4.758;2024-02-16T00:24:07;4.63;;;3.25;;
11614;SDS011;5863;52.832;4.758;2024-02-16T00:26:36;5.13;;;3.67;;
11614;SDS011;5863;52.832;4.758;2024-02-16T00:29:04;5.38;;;3.42;;
11614;SDS011;5863;52.832;4.758;2024-02-16T00:31:31;4.93;;;3.60;;
11614;SDS011;5863;52.832;4.758;2024-02-16T00:33:59;5.55;;;3.50;;
11614;SDS011;5863;52.832;4.758;2024-02-16T00:36:26;6.15;;;3.65;;
11614;SDS011;5863;52.832;4.758;2024-02-16T00:38:55;5.03;;;3.40;;
11614;SDS011;5863;52.832;4.758;2024-02-16T00:41:22;4.93;;;3.72;;
11614;SDS011;5863;52.832;4.758;2024-02-16T00:43:50;6.88;;;3.92;;
11614;SDS011;5863;52.832;4.758;2024-02-16T00:46:18;6.97;;;3.65;;
11614;SDS011;5863;52.832;4.758;2024-02-16T00:48:44;5.35;;;3.30;;
11614;SDS011;5863;52.832;4.758;2024-02-16T00:51:12;4.78;;;3.55;;
11614;SDS011;5863;52.832;4.758;2024-02-16T00:53:39;5.95;;;3.40;;
11614;SDS011;5863;52.832;4.758;2024-02-16T00:56:06;6.05;;;3.70;;
11614;SDS011;5863;52.832;4.758;2024-02-16T00:58:33;4.97;;;3.25;;
11614;SDS011;5863;52.832;4.758;2024-02-16T01:01:01;8.02;;;3.72;;
11614;SDS011;5863;52.832;4.758;2024-02-16T01:03:29;5.32;;;3.45;;
11614;SDS011;5863;52.832;4.758;2024-02-16T01:05:56;7.18;;;3.72;;
11614;SDS011;5863;52.832;4.758;2024-02-16T01:08:23;4.57;;;3.70;;
11614;SDS011;5863;52.832;4.758;2024-02-16T01:10:52;7.70;;;3.67;;
11614;SDS011;5863;52.832;4.758;2024-02-16T01:13:19;7.07;;;3.67;;
11614;SDS011;5863;52.832;4.758;2024-02-16T01:15:46;5.28;;;3.67;;
11614;SDS011;5863;52.832;4.758;2024-02-16T01:18:14;4.30;;;3.25;;
11614;SDS011;5863;52.832;4.758;2024-02-16T01:20:41;6.38;;;3.65;;
11614;SDS011;5863;52.832;4.758;2024-02-16T01:23:08;6.30;;;3.75;;
11614;SDS011;5863;52.832;4.758;2024-02-16T01:25:35;6.20;;;3.80;;
11614;SDS011;5863;52.832;4.758;2024-02-16T01:28:02;5.28;;;3.58;;
11614;SDS011;5863;52.832;4.758;2024-02-16T01:30:29;4.97;;;3.70;;
11614;SDS011;5863;52.832;4.758;2024-02-16T01:32:56;4.40;;;3.40;;
11614;SDS011;5863;52.832;4.758;2024-02-16T01:35:24;6.68;;;3.75;;
11614;SDS011;5863;52.832;4.758;2024-02-16T01:37:51;4.72;;;3.47;;
11614;SDS011;5863;52.832;4.758;2024-02-16T01:40:17;4.72;;;3.80;;
11614;SDS011;5863;52.832;4.758;2024-02-16T01:42:46;8.88;;;4.10;;
11614;SDS011;5863;52.832;4.758;2024-02-16T01:45:13;5.25;;;3.83;;
11614;SDS011;5863;52.832;4.758;2024-02-16T01:47:41;4.95;;;3.40;;
11614;SDS011;5863;52.832;4.758;2024-02-16T01:50:11;9.57;;;3.83;;
11614;SDS011;5863;52.832;4.758;2024-02-16T01:52:41;4.43;;;3.60;;
11614;SDS011;5863;52.832;4.758;2024-02-16T01:55:09;6.80;;;3.80;;
11614;SDS011;5863;52.832;4.758;2024-02-16T01:57:37;4.78;;;3.72;;
11614;SDS011;5863;52.832;4.758;2024-02-16T02:00:06;4.75;;;3.47;;
11614;SDS011;5863;52.832;4.758;2024-02-16T02:02:33;4.53;;;4.10;;
11614;SDS011;5863;52.832;4.758;2024-02-16T02:05:00;5.90;;;4.20;;
11614;SDS011;5863;52.832;4.758;2024-02-16T02:07:27;7.38;;;4.20;;
11614;SDS011;5863;52.832;4.758;2024-02-16T02:09:55;4.82;;;4.20;;
11614;SDS011;5863;52.832;4.758;2024-02-16T02:12:22;6.43;;;3.80;;
11614;SDS011;5863;52.832;4.758;2024-02-16T02:14:49;6.18;;;3.67;;
11614;SDS011;5863;52.832;4.758;2024-02-16T02:17:16;5.47;;;4.00;;
11614;SDS011;5863;52.832;4.758;2024-02-16T02:19:44;5.95;;;4.32;;
11614;SDS011;5863;52.832;4.758;2024-02-16T02:22:14;5.47;;;3.63;;
11614;SDS011;5863;52.832;4.758;2024-02-16T02:24:41;6.13;;;4.13;;
11614;SDS011;5863;52.832;4.758;2024-02-16T02:27:09;4.95;;;3.53;;
11614;SDS011;5863;52.832;4.758;2024-02-16T02:29:35;4.38;;;3.75;;
11614;SDS011;5863;52.832;4.758;2024-02-16T02:32:02;4.35;;;3.95;;
11614;SDS011;5863;52.832;4.758;2024-02-16T02:34:30;5.07;;;3.90;;
11614;SDS011;5863;52.832;4.758;2024-02-16T02:36:57;4.70;;;4.07;;
11614;SDS011;5863;52.832;4.758;2024-02-16T02:39:25;4.40;;;3.65;;
11614;SDS011;5863;52.832;4.758;2024-02-16T02:41:53;5.43;;;3.70;;
11614;SDS011;5863;52.832;4.758;2024-02-16T02:44:20;7.28;;;3.83;;
11614;SDS011;5863;52.832;4.758;2024-02-16T02:46:47;5.03;;;3.83;;
11614;SDS011;5863;52.832;4.758;2024-02-16T02:49:14;7.40;;;4.45;;
11614;SDS011;5863;52.832;4.758;2024-02-16T02:51:40;5.10;;;3.95;;
11614;SDS011;5863;52.832;4.758;2024-02-16T02:54:07;5.10;;;3.97;;
11614;SDS011;5863;52.832;4.758;2024-02-16T02:56:35;5.90;;;3.80;;
11614;SDS011;5863;52.832;4.758;2024-02-16T02:59:02;7.93;;;4.78;;
11614;SDS011;5863;52.832;4.758;2024-02-16T03:01:30;7.00;;;4.30;;
11614;SDS011;5863;52.832;4.758;2024-02-16T03:03:57;6.68;;;4.38;;
11614;SDS011;5863;52.832;4.758;2024-02-16T03:06:25;6.22;;;4.20;;
11614;SDS011;5863;52.832;4.758;2024-02-16T03:08:52;6.88;;;4.07;;
11614;SDS011;5863;52.832;4.758;2024-02-16T03:11:19;5.53;;;4.35;;
11614;SDS011;5863;52.832;4.758;2024-02-16T03:13:48;4.68;;;3.80;;
11614;SDS011;5863;52.832;4.758;2024-02-16T03:16:15;4.78;;;3.90;;
11614;SDS011;5863;52.832;4.758;2024-02-16T03:18:41;5.13;;;4.03;;
11614;SDS011;5863;52.832;4.758;2024-02-16T03:21:12;5.25;;;3.72;;
11614;SDS011;5863;52.832;4.758;2024-02-16T03:23:41;6.20;;;4.30;;
11614;SDS011;5863;52.832;4.758;2024-02-16T03:26:13;4.90;;;3.97;;
11614;SDS011;5863;52.832;4.758;2024-02-16T03:28:40;7.05;;;3.90;;
11614;SDS011;5863;52.832;4.758;2024-02-16T03:31:14;6.32;;;4.20;;
11614;SDS011;5863;52.832;4.758;2024-02-16T03:33:42;4.82;;;3.67;;
11614;SDS011;5863;52.832;4.758;2024-02-16T03:36:09;5.00;;;4.07;;
11614;SDS011;5863;52.832;4.758;2024-02-16T03:38:37;5.75;;;4.05;;
11614;SDS011;5863;52.832;4.758;2024-02-16T03:41:04;5.10;;;4.05;;
11614;SDS011;5863;52.832;4.758;2024-02-16T03:43:31;5.93;;;4.38;;
11614;SDS011;5863;52.832;4.758;2024-02-16T03:45:58;4.15;;;3.55;;
11614;SDS011;5863;52.832;4.758;2024-02-16T03:48:26;6.10;;;4.20;;
11614;SDS011;5863;52.832;4.758;2024-02-16T03:50:53;4.47;;;4.07;;
11614;SDS011;5863;52.832;4.758;2024-02-16T03:53:20;6.72;;;3.88;;
11614;SDS011;5863;52.832;4.758;2024-02-16T03:55:46;5.35;;;4.30;;
11614;SDS011;5863;52.832;4.758;2024-02-16T03:58:13;5.75;;;4.00;;
11614;SDS011;5863;52.832;4.758;2024-02-16T04:00:40;6.45;;;4.45;;
11614;SDS011;5863;52.832;4.758;2024-02-16T04:03:07;5.03;;;4.10;;
11614;SDS011;5863;52.832;4.758;2024-02-16T04:05:37;5.60;;;4.18;;
11614;SDS011;5863;52.832;4.758;2024-02-16T04:08:05;4.70;;;4.00;;
11614;SDS011;5863;52.832;4.758;2024-02-16T04:10:32;4.55;;;4.15;;
11614;SDS011;5863;52.832;4.758;2024-02-16T04:12:59;5.47;;;4.20;;
11614;SDS011;5863;52.832;4.758;2024-02-16T04:15:26;5.68;;;4.22;;
11614;SDS011;5863;52.832;4.758;2024-02-16T04:17:53;9.32;;;4.47;;
11614;SDS011;5863;52.832;4.758;2024-02-16T04:20:20;5.88;;;4.53;;
11614;SDS011;5863;52.832;4.758;2024-02-16T04:22:48;6.05;;;3.65;;
11614;SDS011;5863;52.832;4.758;2024-02-16T04:25:15;5.88;;;4.60;;
11614;SDS011;5863;52.832;4.758;2024-02-16T04:27:42;7.50;;;4.40;;
11614;SDS011;5863;52.832;4.758;2024-02-16T04:30:09;5.65;;;4.53;;
11614;SDS011;5863;52.832;4.758;2024-02-16T04:32:36;8.38;;;5.22;;
11614;SDS011;5863;52.832;4.758;2024-02-16T04:35:03;5.78;;;4.63;;
11614;SDS011;5863;52.832;4.758;2024-02-16T04:37:30;6.43;;;4.43;;
11614;SDS011;5863;52.832;4.758;2024-02-16T04:39:58;6.63;;;4.35;;
11614;SDS011;5863;52.832;4.758;2024-02-16T04:42:25;6.05;;;4.25;;
11614;SDS011;5863;52.832;4.758;2024-02-16T04:44:52;5.60;;;4.10;;
11614;SDS011;5863;52.832;4.758;2024-02-16T04:47:19;6.90;;;4.40;;
11614;SDS011;5863;52.832;4.758;2024-02-16T04:49:46;5.35;;;4.30;;
11614;SDS011;5863;52.832;4.758;2024-02-16T04:52:12;6.47;;;4.63;;
11614;SDS011;5863;52.832;4.758;2024-02-16T04:54:39;5.88;;;4.68;;
11614;SDS011;5863;52.832;4.758;2024-02-16T04:57:07;6.88;;;3.97;;
11614;SDS011;5863;52.832;4.758;2024-02-16T04:59:34;7.97;;;4.85;;
11614;SDS011;5863;52.832;4.758;2024-02-16T05:02:01;5.05;;;4.10;;
11614;SDS011;5863;52.832;4.758;2024-02-16T05:04:31;6.18;;;4.45;;
11614;SDS011;5863;52.832;4.758;2024-02-16T05:06:59;5.82;;;4.68;;
11614;SDS011;5863;52.832;4.758;2024-02-16T05:09:26;4.53;;;4.13;;
11614;SDS011;5863;52.832;4.758;2024-02-16T05:11:53;5.22;;;4.18;;
11614;SDS011;5863;52.832;4.758;2024-02-16T05:14:21;5.93;;;4.32;;
11614;SDS011;5863;52.832;4.758;2024-02-16T05:16:49;5.32;;;4.25;;
11614;SDS011;5863;52.832;4.758;2024-02-16T05:19:16;9.10;;;4.72;;
11614;SDS011;5863;52.832;4.758;2024-02-16T05:21:43;5.68;;;4.38;;
11614;SDS011;5863;52.832;4.758;2024-02-16T05:24:10;5.07;;;4.53;;
11614;SDS011;5863;52.832;4.758;2024-02-16T05:26:37;7.80;;;4.93;;
11614;SDS011;5863;52.832;4.758;2024-02-16T05:29:03;6.45;;;4.70;;
11614;SDS011;5863;52.832;4.758;2024-02-16T05:31:32;6.28;;;4.53;;
11614;SDS011;5863;52.832;4.758;2024-02-16T05:33:58;6.80;;;4.40;;
11614;SDS011;5863;52.832;4.758;2024-02-16T05:36:25;9.07;;;4.60;;
11614;SDS011;5863;52.832;4.758;2024-02-16T05:38:56;7.72;;;4.68;;
11614;SDS011;5863;52.832;4.758;2024-02-16T05:41:34;7.32;;;4.53;;
11614;SDS011;5863;52.832;4.758;2024-02-16T05:44:02;8.57;;;5.10;;
11614;SDS011;5863;52.832;4.758;2024-02-16T05:46:29;6.78;;;4.93;;
11614;SDS011;5863;52.832;4.758;2024-02-16T05:48:57;6.70;;;4.60;;
11614;SDS011;5863;52.832;4.758;2024-02-16T05:51:24;6.55;;;5.22;;
11614;SDS011;5863;52.832;4.758;2024-02-16T05:53:51;7.78;;;4.90;;
11614;SDS011;5863;52.832;4.758;2024-02-16T05:56:18;7.53;;;4.85;;
11614;SDS011;5863;52.832;4.758;2024-02-16T05:58:45;6.82;;;4.97;;
11614;SDS011;5863;52.832;4.758;2024-02-16T06:01:15;9.07;;;4.75;;
11614;SDS011;5863;52.832;4.758;2024-02-16T06:03:43;7.35;;;4.57;;
11614;SDS011;5863;52.832;4.758;2024-02-16T06:06:10;8.20;;;5.10;;
11614;SDS011;5863;52.832;4.758;2024-02-16T06:08:37;6.03;;;4.22;;
11614;SDS011;5863;52.832;4.758;2024-02-16T06:11:06;6.03;;;4.60;;
11614;SDS011;5863;52.832;4.758;2024-02-16T06:13:33;6.80;;;4.93;;
11614;SDS011;5863;52.832;4.758;2024-02-16T06:16:00;8.80;;;4.88;;
11614;SDS011;5863;52.832;4.758;2024-02-16T06:18:27;5.00;;;4.10;;
11614;SDS011;5863;52.832;4.758;2024-02-16T06:20:56;8.98;;;4.85;;
11614;SDS011;5863;52.832;4.758;2024-02-16T06:23:22;8.50;;;4.68;;
11614;SDS011;5863;52.832;4.758;2024-02-16T06:25:49;7.55;;;4.90;;
11614;SDS011;5863;52.832;4.758;2024-02-16T06:28:16;6.93;;;4.90;;
11614;SDS011;5863;52.832;4.758;2024-02-16T06:30:43;7.68;;;5.07;;
11614;SDS011;5863;52.832;4.758;2024-02-16T06:33:10;7.28;;;4.63;;
11614;SDS011;5863;52.832;4.758;2024-02-16T06:35:37;6.53;;;4.78;;
11614;SDS011;5863;52.832;4.758;2024-02-16T06:38:05;7.53;;;4.53;;
11614;SDS011;5863;52.832;4.758;2024-02-16T06:40:32;9.13;;;4.75;;
11614;SDS011;5863;52.832;4.758;2024-02-16T06:42:58;9.15;;;4.70;;
11614;SDS011;5863;52.832;4.758;2024-02-16T06:45:25;5.55;;;4.72;;
11614;SDS011;5863;52.832;4.758;2024-02-16T06:47:54;6.35;;;4.95;;
11614;SDS011;5863;52.832;4.758;2024-02-16T06:50:21;9.43;;;5.18;;
11614;SDS011;5863;52.832;4.758;2024-02-16T06:52:48;7.93;;;4.88;;
11614;SDS011;5863;52.832;4.758;2024-02-16T06:55:16;7.57;;;4.80;;
11614;SDS011;5863;52.832;4.758;2024-02-16T06:57:44;8.32;;;4.82;;
11614;SDS011;5863;52.832;4.758;2024-02-16T07:00:11;7.95;;;4.78;;
11614;SDS011;5863;52.832;4.758;2024-02-16T07:02:40;7.03;;;4.78;;
11614;SDS011;5863;52.832;4.758;2024-02-16T07:05:07;7.30;;;4.85;;
11614;SDS011;5863;52.832;4.758;2024-02-16T07:07:35;7.25;;;4.78;;
11614;SDS011;5863;52.832;4.758;2024-02-16T07:10:02;7.95;;;5.13;;
11614;SDS011;5863;52.832;4.758;2024-02-16T07:12:31;6.65;;;4.93;;
11614;SDS011;5863;52.832;4.758;2024-02-16T07:14:59;7.43;;;5.43;;
11614;SDS011;5863;52.832;4.758;2024-02-16T07:17:25;9.90;;;5.25;;
11614;SDS011;5863;52.832;4.758;2024-02-16T07:19:52;6.53;;;4.82;;
11614;SDS011;5863;52.832;4.758;2024-02-16T07:22:19;7.70;;;5.63;;
11614;SDS011;5863;52.832;4.758;2024-02-16T07:24:46;8.70;;;5.38;;
11614;SDS011;5863;52.832;4.758;2024-02-16T07:27:13;10.27;;;5.28;;
11614;SDS011;5863;52.832;4.758;2024-02-16T07:29:41;9.30;;;5.03;;
11614;SDS011;5863;52.832;4.758;2024-02-16T07:32:08;9.38;;;5.13;;
11614;SDS011;5863;52.832;4.758;2024-02-16T07:34:35;9.13;;;5.32;;
11614;SDS011;5863;52.832;4.758;2024-02-16T07:37:03;10.00;;;5.28;;
11614;SDS011;5863;52.832;4.758;2024-02-16T07:39:30;10.13;;;5.38;;
11614;SDS011;5863;52.832;4.758;2024-02-16T07:41:57;7.50;;;5.13;;
11614;SDS011;5863;52.832;4.758;2024-02-16T07:44:24;7.45;;;5.22;;
11614;SDS011;5863;52.832;4.758;2024-02-16T07:46:52;10.27;;;5.53;;
11614;SDS011;5863;52.832;4.758;2024-02-16T07:49:19;10.93;;;5.82;;
11614;SDS011;5863;52.832;4.758;2024-02-16T07:51:46;7.65;;;5.07;;
11614;SDS011;5863;52.832;4.758;2024-02-16T07:54:13;8.30;;;4.85;;
11614;SDS011;5863;52.832;4.758;2024-02-16T07:56:41;9.00;;;5.60;;
11614;SDS011;5863;52.832;4.758;2024-02-16T07:59:08;8.95;;;5.32;;
11614;SDS011;5863;52.832;4.758;2024-02-16T08:01:35;7.10;;;5.25;;
11614;SDS011;5863;52.832;4.758;2024-02-16T08:04:03;7.28;;;5.15;;
11614;SDS011;5863;52.832;4.758;2024-02-16T08:06:30;9.82;;;5.43;;
11614;SDS011;5863;52.832;4.758;2024-02-16T08:08:57;11.00;;;5.30;;
11614;SDS011;5863;52.832;4.758;2024-02-16T08:11:24;10.60;;;4.95;;
11614;SDS011;5863;52.832;4.758;2024-02-16T08:13:52;12.48;;;5.40;;
11614;SDS011;5863;52.832;4.758;2024-02-16T08:16:20;9.40;;;5.75;;
11614;SDS011;5863;52.832;4.758;2024-02-16T08:18:47;9.50;;;5.22;;
11614;SDS011;5863;52.832;4.758;2024-02-16T08:21:15;7.45;;;5.30;;
11614;SDS011;5863;52.832;4.758;2024-02-16T08:23:42;13.45;;;5.22;;
11614;SDS011;5863;52.832;4.758;2024-02-16T08:26:09;13.60;;;5.88;;
11614;SDS011;5863;52.832;4.758;2024-02-16T08:28:36;10.80;;;5.40;;
11614;SDS011;5863;52.832;4.758;2024-02-16T08:31:04;10.93;;;5.63;;
11614;SDS011;5863;52.832;4.758;2024-02-16T08:33:31;11.75;;;5.18;;
11614;SDS011;5863;52.832;4.758;2024-02-16T08:36:02;14.70;;;5.93;;
11614;SDS011;5863;52.832;4.758;2024-02-16T08:38:31;10.88;;;5.75;;
11614;SDS011;5863;52.832;4.758;2024-02-16T08:40:58;14.02;;;6.10;;
11614;SDS011;5863;52.832;4.758;2024-02-16T08:43:25;12.85;;;6.00;;
11614;SDS011;5863;52.832;4.758;2024-02-16T08:45:52;10.70;;;5.32;;
11614;SDS011;5863;52.832;4.758;2024-02-16T08:48:18;13.15;;;6.18;;
11614;SDS011;5863;52.832;4.758;2024-02-16T08:50:45;13.82;;;6.18;;
11614;SDS011;5863;52.832;4.758;2024-02-16T08:53:12;11.45;;;5.85;;
11614;SDS011;5863;52.832;4.758;2024-02-16T08:55:41;11.98;;;6.07;;
11614;SDS011;5863;52.832;4.758;2024-02-16T08:58:07;15.32;;;6.32;;
11614;SDS011;5863;52.832;4.758;2024-02-16T09:00:35;15.52;;;6.32;;
11614;SDS011;5863;52.832;4.758;2024-02-16T09:03:01;17.33;;;6.95;;
11614;SDS011;5863;52.832;4.758;2024-02-16T09:05:31;19.98;;;6.97;;
11614;SDS011;5863;52.832;4.758;2024-02-16T09:07:58;17.52;;;7.10;;
11614;SDS011;5863;52.832;4.758;2024-02-16T09:10:25;19.42;;;6.88;;
11614;SDS011;5863;52.832;4.758;2024-02-16T09:12:53;23.75;;;8.02;;
11614;SDS011;5863;52.832;4.758;2024-02-16T09:15:20;20.45;;;8.02;;
11614;SDS011;5863;52.832;4.758;2024-02-16T09:17:47;19.45;;;7.82;;
11614;SDS011;5863;52.832;4.758;2024-02-16T09:20:14;16.35;;;8.27;;
11614;SDS011;5863;52.832;4.758;2024-02-16T09:22:41;16.10;;;8.27;;
11614;SDS011;5863;52.832;4.758;2024-02-16T09:25:08;20.25;;;7.55;;
11614;SDS011;5863;52.832;4.758;2024-02-16T09:27:34;18.23;;;8.95;;
11614;SDS011;5863;52.832;4.758;2024-02-16T09:30:07;22.83;;;8.82;;
11614;SDS011;5863;52.832;4.758;2024-02-16T09:32:36;15.45;;;8.40;;
11614;SDS011;5863;52.832;4.758;2024-02-16T09:35:05;19.65;;;7.68;;
11614;SDS011;5863;52.832;4.758;2024-02-16T09:37:32;14.30;;;7.88;;
11614;SDS011;5863;52.832;4.758;2024-02-16T09:39:59;15.05;;;7.13;;
11614;SDS011;5863;52.832;4.758;2024-02-16T09:42:29;11.95;;;6.57;;
11614;SDS011;5863;52.832;4.758;2024-02-16T09:44:55;15.65;;;6.93;;
11614;SDS011;5863;52.832;4.758;2024-02-16T09:47:24;11.05;;;6.22;;
11614;SDS011;5863;52.832;4.758;2024-02-16T09:49:53;12.73;;;6.03;;
11614;SDS011;5863;52.832;4.758;2024-02-16T09:52:20;13.18;;;5.80;;
11614;SDS011;5863;52.832;4.758;2024-02-16T09:54:48;10.20;;;5.32;;
11614;SDS011;5863;52.832;4.758;2024-02-16T09:57:16;8.40;;;5.28;;
11614;SDS011;5863;52.832;4.758;2024-02-16T09:59:43;7.18;;;4.10;;
11614;SDS011;5863;52.832;4.758;2024-02-16T10:02:10;6.55;;;3.20;;
11614;SDS011;5863;52.832;4.758;2024-02-16T10:04:39;7.60;;;3.15;;
11614;SDS011;5863;52.832;4.758;2024-02-16T10:07:06;3.50;;;2.70;;
11614;SDS011;5863;52.832;4.758;2024-02-16T10:09:33;5.45;;;2.60;;
11614;SDS011;5863;52.832;4.758;2024-02-16T10:12:00;7.78;;;3.40;;
11614;SDS011;5863;52.832;4.758;2024-02-16T10:14:26;5.20;;;3.13;;
11614;SDS011;5863;52.832;4.758;2024-02-16T10:17:00;5.80;;;3.30;;
11614;SDS011;5863;52.832;4.758;2024-02-16T10:19:28;8.23;;;3.05;;
11614;SDS011;5863;52.832;4.758;2024-02-16T10:22:07;6.78;;;2.67;;
11614;SDS011;5863;52.832;4.758;2024-02-16T10:24:35;10.40;;;4.30;;
11614;SDS011;5863;52.832;4.758;2024-02-16T10:27:03;9.52;;;2.92;;
11614;SDS011;5863;52.832;4.758;2024-02-16T10:29:30;5.70;;;2.42;;
11614;SDS011;5863;52.832;4.758;2024-02-16T10:31:59;5.65;;;2.13;;
11614;SDS011;5863;52.832;4.758;2024-02-16T10:34:25;6.63;;;2.83;;
11614;SDS011;5863;52.832;4.758;2024-02-16T10:36:55;7.28;;;2.30;;
11614;SDS011;5863;52.832;4.758;2024-02-16T10:39:26;6.95;;;2.20;;
11614;SDS011;5863;52.832;4.758;2024-02-16T10:41:53;8.30;;;2.55;;
11614;SDS011;5863;52.832;4.758;2024-02-16T10:44:24;4.90;;;2.13;;
11614;SDS011;5863;52.832;4.758;2024-02-16T10:46:53;11.93;;;2.63;;
11614;SDS011;5863;52.832;4.758;2024-02-16T10:49:22;10.23;;;2.70;;
11614;SDS011;5863;52.832;4.758;2024-02-16T10:51:51;7.70;;;2.40;;
11614;SDS011;5863;52.832;4.758;2024-02-16T10:54:22;8.07;;;2.20;;
11614;SDS011;5863;52.832;4.758;2024-02-16T10:56:55;6.80;;;2.13;;
11614;SDS011;5863;52.832;4.758;2024-02-16T10:59:22;6.75;;;2.20;;
11614;SDS011;5863;52.832;4.758;2024-02-16T11:01:58;8.93;;;2.28;;
11614;SDS011;5863;52.832;4.758;2024-02-16T11:04:35;7.57;;;1.90;;
11614;SDS011;5863;52.832;4.758;2024-02-16T11:07:09;9.55;;;2.72;;
11614;SDS011;5863;52.832;4.758;2024-02-16T11:09:38;9.48;;;2.28;;
11614;SDS011;5863;52.832;4.758;2024-02-16T11:12:07;5.88;;;2.35;;
11614;SDS011;5863;52.832;4.758;2024-02-16T11:14:37;6.13;;;2.20;;
11614;SDS011;5863;52.832;4.758;2024-02-16T11:17:08;7.22;;;2.20;;
11614;SDS011;5863;52.832;4.758;2024-02-16T11:19:35;6.10;;;2.22;;
11614;SDS011;5863;52.832;4.758;2024-02-16T11:22:03;4.25;;;2.17;;
11614;SDS011;5863;52.832;4.758;2024-02-16T11:24:32;6.85;;;2.20;;
11614;SDS011;5863;52.832;4.758;2024-02-16T11:27:03;6.95;;;2.45;;
11614;SDS011;5863;52.832;4.758;2024-02-16T11:29:35;10.85;;;2.45;;
11614;SDS011;5863;52.832;4.758;2024-02-16T11:32:03;6.07;;;2.55;;
11614;SDS011;5863;52.832;4.758;2024-02-16T11:34:31;8.10;;;2.80;;
11614;SDS011;5863;52.832;4.758;2024-02-16T11:36:59;9.07;;;2.60;;
11614;SDS011;5863;52.832;4.758;2024-02-16T11:39:29;5.40;;;2.40;;
11614;SDS011;5863;52.832;4.758;2024-02-16T11:41:59;6.78;;;2.70;;
11614;SDS011;5863;52.832;4.758;2024-02-16T11:44:28;8.85;;;3.05;;
11614;SDS011;5863;52.832;4.758;2024-02-16T11:46:58;8.45;;;3.00;;
11614;SDS011;5863;52.832;4.758;2024-02-16T11:49:26;8.60;;;3.10;;
11614;SDS011;5863;52.832;4.758;2024-02-16T11:51:53;11.02;;;3.63;;
11614;SDS011;5863;52.832;4.758;2024-02-16T11:54:21;9.00;;;3.47;;
11614;SDS011;5863;52.832;4.758;2024-02-16T11:56:47;16.45;;;3.97;;
11614;SDS011;5863;52.832;4.758;2024-02-16T11:59:16;9.50;;;3.53;;
11614;SDS011;5863;52.832;4.758;2024-02-16T12:01:53;7.75;;;3.20;;
11614;SDS011;5863;52.832;4.758;2024-02-16T12:04:25;12.45;;;3.70;;
11614;SDS011;5863;52.832;4.758;2024-02-16T12:06:54;12.00;;;3.92;;
11614;SDS011;5863;52.832;4.758;2024-02-16T12:09:22;11.25;;;3.80;;
11614;SDS011;5863;52.832;4.758;2024-02-16T12:11:49;11.85;;;4.00;;
11614;SDS011;5863;52.832;4.758;2024-02-16T12:14:17;11.02;;;3.78;;
11614;SDS011;5863;52.832;4.758;2024-02-16T12:16:46;14.05;;;3.75;;
11614;SDS011;5863;52.832;4.758;2024-02-16T12:19:14;14.43;;;4.47;;
11614;SDS011;5863;52.832;4.758;2024-02-16T12:21:42;10.35;;;3.50;;
11614;SDS011;5863;52.832;4.758;2024-02-16T12:24:09;9.02;;;3.03;;
11614;SDS011;5863;52.832;4.758;2024-02-16T12:26:36;14.48;;;3.95;;
11614;SDS011;5863;52.832;4.758;2024-02-16T12:29:04;13.55;;;4.00;;
11614;SDS011;5863;52.832;4.758;2024-02-16T12:31:31;14.13;;;3.40;;
11614;SDS011;5863;52.832;4.758;2024-02-16T12:33:58;10.98;;;3.00;;
11614;SDS011;5863;52.832;4.758;2024-02-16T12:36:26;10.00;;;3.72;;
11614;SDS011;5863;52.832;4.758;2024-02-16T12:38:54;9.60;;;3.28;;
11614;SDS011;5863;52.832;4.758;2024-02-16T12:41:21;12.27;;;3.08;;
11614;SDS011;5863;52.832;4.758;2024-02-16T12:43:48;11.07;;;2.88;;
11614;SDS011;5863;52.832;4.758;2024-02-16T12:46:15;9.80;;;3.13;;
11614;SDS011;5863;52.832;4.758;2024-02-16T12:48:42;11.18;;;3.03;;
11614;SDS011;5863;52.832;4.758;2024-02-16T12:51:09;10.27;;;3.03;;
11614;SDS011;5863;52.832;4.758;2024-02-16T12:53:36;9.80;;;3.08;;
11614;SDS011;5863;52.832;4.758;2024-02-16T12:56:07;9.70;;;2.63;;
11614;SDS011;5863;52.832;4.758;2024-02-16T12:58:35;7.15;;;2.75;;
11614;SDS011;5863;52.832;4.758;2024-02-16T13:01:02;9.13;;;2.85;;
11614;SDS011;5863;52.832;4.758;2024-02-16T13:03:31;8.02;;;2.88;;
11614;SDS011;5863;52.832;4.758;2024-02-16T13:05:58;7.80;;;2.65;;
11614;SDS011;5863;52.832;4.758;2024-02-16T13:08:25;6.82;;;2.65;;
11614;SDS011;5863;52.832;4.758;2024-02-16T13:10:51;8.50;;;2.97;;
11614;SDS011;5863;52.832;4.758;2024-02-16T13:13:20;6.75;;;2.60;;
11614;SDS011;5863;52.832;4.758;2024-02-16T13:15:46;7.55;;;3.00;;
11614;SDS011;5863;52.832;4.758;2024-02-16T13:18:14;6.45;;;2.50;;
11614;SDS011;5863;52.832;4.758;2024-02-16T13:20:41;10.15;;;3.25;;
11614;SDS011;5863;52.832;4.758;2024-02-16T13:23:08;5.97;;;2.70;;
11614;SDS011;5863;52.832;4.758;2024-02-16T13:25:35;7.05;;;3.10;;
11614;SDS011;5863;52.832;4.758;2024-02-16T13:28:03;10.13;;;3.25;;
11614;SDS011;5863;52.832;4.758;2024-02-16T13:30:31;7.85;;;3.25;;
11614;SDS011;5863;52.832;4.758;2024-02-16T13:32:58;12.65;;;3.67;;
11614;SDS011;5863;52.832;4.758;2024-02-16T13:35:25;8.38;;;3.72;;
11614;SDS011;5863;52.832;4.758;2024-02-16T13:37:53;8.20;;;3.60;;
11614;SDS011;5863;52.832;4.758;2024-02-16T13:40:20;8.13;;;3.67;;
11614;SDS011;5863;52.832;4.758;2024-02-16T13:42:47;11.73;;;3.83;;
11614;SDS011;5863;52.832;4.758;2024-02-16T13:45:14;7.88;;;3.55;;
11614;SDS011;5863;52.832;4.758;2024-02-16T13:47:42;8.52;;;3.88;;
11614;SDS011;5863;52.832;4.758;2024-02-16T13:50:09;10.82;;;3.92;;
11614;SDS011;5863;52.832;4.758;2024-02-16T13:52:36;9.95;;;3.92;;
11614;SDS011;5863;52.832;4.758;2024-02-16T13:55:03;9.02;;;4.15;;
11614;SDS011;5863;52.832;4.758;2024-02-16T13:57:31;7.25;;;3.65;;
11614;SDS011;5863;52.832;4.758;2024-02-16T13:59:58;11.25;;;4.03;;
11614;SDS011;5863;52.832;4.758;2024-02-16T14:02:25;8.82;;;4.68;;
11614;SDS011;5863;52.832;4.758;2024-02-16T14:04:53;10.23;;;4.43;;
11614;SDS011;5863;52.832;4.758;2024-02-16T14:07:21;10.38;;;5.30;;
11614;SDS011;5863;52.832;4.758;2024-02-16T14:09:48;10.70;;;4.93;;
11614;SDS011;5863;52.832;4.758;2024-02-16T14:12:15;12.60;;;5.32;;
11614;SDS011;5863;52.832;4.758;2024-02-16T14:14:42;11.27;;;5.60;;
11614;SDS011;5863;52.832;4.758;2024-02-16T14:17:09;14.50;;;5.82;;
11614;SDS011;5863;52.832;4.758;2024-02-16T14:19:36;9.43;;;4.75;;
11614;SDS011;5863;52.832;4.758;2024-02-16T14:22:04;8.50;;;4.93;;
11614;SDS011;5863;52.832;4.758;2024-02-16T14:24:32;10.38;;;5.80;;
11614;SDS011;5863;52.832;4.758;2024-02-16T14:26:58;10.80;;;5.43;;
11614;SDS011;5863;52.832;4.758;2024-02-16T14:29:25;11.50;;;4.95;;
11614;SDS011;5863;52.832;4.758;2024-02-16T14:31:54;10.45;;;4.90;;
11614;SDS011;5863;52.832;4.758;2024-02-16T14:34:21;9.07;;;5.03;;
11614;SDS011;5863;52.832;4.758;2024-02-16T14:36:47;12.27;;;5.22;;
11614;SDS011;5863;52.832;4.758;2024-02-16T14:39:16;10.18;;;5.20;;
11614;SDS011;5863;52.832;4.758;2024-02-16T14:41:42;9.77;;;5.70;;
11614;SDS011;5863;52.832;4.758;2024-02-16T14:44:09;10.73;;;5.43;;
11614;SDS011;5863;52.832;4.758;2024-02-16T14:46:36;10.75;;;6.05;;
11614;SDS011;5863;52.832;4.758;2024-02-16T14:49:03;10.35;;;6.13;;
11614;SDS011;5863;52.832;4.758;2024-02-16T14:51:33;12.00;;;6.03;;
11614;SDS011;5863;52.832;4.758;2024-02-16T14:54:00;11.50;;;6.47;;
11614;SDS011;5863;52.832;4.758;2024-02-16T14:56:30;13.60;;;6.95;;
11614;SDS011;5863;52.832;4.758;2024-02-16T14:58:57;13.88;;;6.28;;
11614;SDS011;5863;52.832;4.758;2024-02-16T15:01:24;13.60;;;6.30;;